sensor_id;sensor_type;location;lat;lon;timestamp;P1;durP1;ratioP1;P2;durP2;ratioP2
21014;SDS011;19207;-23.482;-46.500;2023-05-20T00:00:53;31.67;;;10.77;;
21014;SDS011;19207;-23.482;-46.500;2023-05-20T00:03:40;28.17;;;8.80;;
21014;SDS011;19207;-23.482;-46.500;2023-05-20T00:06:27;40.15;;;10.10;;
21014;SDS011;19207;-23.482;-46.500;2023-05-20T00:09:15;25.55;;;8.70;;
21014;SDS011;19207;-23.482;-46.500;2023-05-20T00:12:02;37.75;;;9.75;;
21014;SDS011;19207;-23.482;-46.500;2023-05-20T00:14:48;25.88;;;8.52;;
21014;SDS011;19207;-23.482;-46.500;2023-05-20T00:17:35;34.75;;;10.23;;
21014;SDS011;19207;-23.482;-46.500;2023-05-20T00:20:21;23.27;;;8.10;;
21014;SDS011;19207;-23.482;-46.500;2023-05-20T00:23:08;28.98;;;9.18;;
21014;SDS011;19207;-23.482;-46.500;2023-05-20T00:25:55;25.42;;;8.10;;
21014;SDS011;19207;-23.482;-46.500;2023-05-20T00:28:42;30.83;;;9.02;;
21014;SDS011;19207;-23.482;-46.500;2023-05-20T00:31:28;24.33;;;9.23;;
21014;SDS011;19207;-23.482;-46.500;2023-05-20T00:34:16;28.33;;;9.18;;
21014;SDS011;19207;-23.482;-46.500;2023-05-20T00:37:03;29.33;;;10.27;;
21014;SDS011;19207;-23.482;-46.500;2023-05-20T00:39:50;31.17;;;10.55;;
21014;SDS011;19207;-23.482;-46.500;2023-05-20T00:42:37;24.17;;;8.55;;
21014;SDS011;19207;-23.482;-46.500;2023-05-20T00:45:27;24.30;;;8.15;;
21014;SDS011;19207;-23.482;-46.500;2023-05-20T00:48:14;25.35;;;8.75;;
21014;SDS011;19207;-23.482;-46.500;2023-05-20T00:51:01;23.45;;;9.43;;
21014;SDS011;19207;-23.482;-46.500;2023-05-20T00:53:49;23.67;;;8.77;;
21014;SDS011;19207;-23.482;-46.500;2023-05-20T00:56:36;33.25;;;11.57;;
21014;SDS011;19207;-23.482;-46.500;2023-05-20T00:59:24;27.15;;;10.15;;
21014;SDS011;19207;-23.482;-46.500;2023-05-20T01:02:11;24.67;;;10.50;;
21014;SDS011;19207;-23.482;-46.500;2023-05-20T01:04:58;25.42;;;9.40;;
21014;SDS011;19207;-23.482;-46.500;2023-05-20T01:07:45;24.87;;;11.23;;
21014;SDS011;19207;-23.482;-46.500;2023-05-20T01:10:32;25.12;;;10.02;;
21014;SDS011;19207;-23.482;-46.500;2023-05-20T01:13:22;31.42;;;12.18;;
21014;SDS011;19207;-23.482;-46.500;2023-05-20T01:16:10;24.58;;;11.85;;
21014;SDS011;19207;-23.482;-46.500;2023-05-20T01:18:57;30.05;;;12.25;;
21014;SDS011;19207;-23.482;-46.500;2023-05-20T01:21:44;37.05;;;12.82;;
21014;SDS011;19207;-23.482;-46.500;2023-05-20T01:24:31;42.17;;;16.23;;
21014;SDS011;19207;-23.482;-46.500;2023-05-20T01:27:19;42.17;;;17.17;;
21014;SDS011;19207;-23.482;-46.500;2023-05-20T01:30:06;46.88;;;18.10;;
21014;SDS011;19207;-23.482;-46.500;2023-05-20T01:32:54;44.92;;;18.70;;
21014;SDS011;19207;-23.482;-46.500;2023-05-20T01:35:43;44.97;;;18.62;;
21014;SDS011;19207;-23.482;-46.500;2023-05-20T01:38:30;46.08;;;18.12;;
21014;SDS011;19207;-23.482;-46.500;2023-05-20T01:41:18;52.70;;;20.60;;
21014;SDS011;19207;-23.482;-46.500;2023-05-20T01:44:06;53.38;;;20.48;;
21014;SDS011;19207;-23.482;-46.500;2023-05-20T01:46:53;49.92;;;19.30;;
21014;SDS011;19207;-23.482;-46.500;2023-05-20T01:49:40;48.25;;;21.05;;
21014;SDS011;19207;-23.482;-46.500;2023-05-20T01:52:27;46.00;;;20.27;;
21014;SDS011;19207;-23.482;-46.500;2023-05-20T01:55:15;53.97;;;19.75;;
21014;SDS011;19207;-23.482;-46.500;2023-05-20T01:58:02;54.03;;;19.02;;
21014;SDS011;19207;-23.482;-46.500;2023-05-20T02:00:48;43.25;;;19.45;;
21014;SDS011;19207;-23.482;-46.500;2023-05-20T02:03:35;39.22;;;20.15;;
21014;SDS011;19207;-23.482;-46.500;2023-05-20T02:06:22;55.15;;;21.25;;
21014;SDS011;19207;-23.482;-46.500;2023-05-20T02:09:09;50.53;;;23.40;;
21014;SDS011;19207;-23.482;-46.500;2023-05-20T02:11:56;60.38;;;23.35;;
21014;SDS011;19207;-23.482;-46.500;2023-05-20T02:14:43;60.33;;;25.17;;
21014;SDS011;19207;-23.482;-46.500;2023-05-20T02:17:30;58.45;;;25.48;;
21014;SDS011;19207;-23.482;-46.500;2023-05-20T02:20:17;47.50;;;20.88;;
21014;SDS011;19207;-23.482;-46.500;2023-05-20T02:23:03;34.15;;;16.35;;
21014;SDS011;19207;-23.482;-46.500;2023-05-20T02:25:50;35.97;;;15.40;;
21014;SDS011;19207;-23.482;-46.500;2023-05-20T02:28:37;34.55;;;17.05;;
21014;SDS011;19207;-23.482;-46.500;2023-05-20T02:31:27;40.25;;;18.65;;
21014;SDS011;19207;-23.482;-46.500;2023-05-20T02:34:17;40.15;;;17.77;;
21014;SDS011;19207;-23.482;-46.500;2023-05-20T02:37:04;40.17;;;17.23;;
21014;SDS011;19207;-23.482;-46.500;2023-05-20T02:39:51;45.17;;;18.70;;
21014;SDS011;19207;-23.482;-46.500;2023-05-20T02:42:39;32.58;;;14.52;;
21014;SDS011;19207;-23.482;-46.500;2023-05-20T02:45:26;44.75;;;12.52;;
21014;SDS011;19207;-23.482;-46.500;2023-05-20T02:48:13;25.05;;;11.45;;
21014;SDS011;19207;-23.482;-46.500;2023-05-20T02:51:01;38.05;;;11.50;;
21014;SDS011;19207;-23.482;-46.500;2023-05-20T02:53:48;24.58;;;11.68;;
21014;SDS011;19207;-23.482;-46.500;2023-05-20T02:56:35;22.48;;;11.18;;
21014;SDS011;19207;-23.482;-46.500;2023-05-20T02:59:21;28.45;;;11.35;;
21014;SDS011;19207;-23.482;-46.500;2023-05-20T03:02:08;26.87;;;11.98;;
21014;SDS011;19207;-23.482;-46.500;2023-05-20T03:04:55;28.27;;;11.98;;
21014;SDS011;19207;-23.482;-46.500;2023-05-20T03:07:42;30.12;;;13.60;;
21014;SDS011;19207;-23.482;-46.500;2023-05-20T03:10:30;24.42;;;11.77;;
21014;SDS011;19207;-23.482;-46.500;2023-05-20T03:13:17;28.75;;;11.35;;
21014;SDS011;19207;-23.482;-46.500;2023-05-20T03:16:04;18.87;;;10.05;;
21014;SDS011;19207;-23.482;-46.500;2023-05-20T03:18:51;26.60;;;9.38;;
21014;SDS011;19207;-23.482;-46.500;2023-05-20T03:21:38;25.25;;;10.07;;
21014;SDS011;19207;-23.482;-46.500;2023-05-20T03:24:26;33.85;;;10.02;;
21014;SDS011;19207;-23.482;-46.500;2023-05-20T03:27:13;31.70;;;11.25;;
21014;SDS011;19207;-23.482;-46.500;2023-05-20T03:30:00;27.40;;;11.15;;
21014;SDS011;19207;-23.482;-46.500;2023-05-20T03:32:47;31.65;;;11.15;;
21014;SDS011;19207;-23.482;-46.500;2023-05-20T03:35:35;28.12;;;11.10;;
21014;SDS011;19207;-23.482;-46.500;2023-05-20T03:38:23;32.28;;;11.02;;
21014;SDS011;19207;-23.482;-46.500;2023-05-20T03:41:10;29.45;;;12.18;;
21014;SDS011;19207;-23.482;-46.500;2023-05-20T03:43:57;25.05;;;11.20;;
21014;SDS011;19207;-23.482;-46.500;2023-05-20T03:46:44;35.83;;;11.32;;
21014;SDS011;19207;-23.482;-46.500;2023-05-20T03:49:31;34.55;;;12.48;;
21014;SDS011;19207;-23.482;-46.500;2023-05-20T03:52:19;34.33;;;12.00;;
21014;SDS011;19207;-23.482;-46.500;2023-05-20T03:55:05;39.67;;;12.48;;
21014;SDS011;19207;-23.482;-46.500;2023-05-20T03:57:53;34.28;;;12.82;;
21014;SDS011;19207;-23.482;-46.500;2023-05-20T04:00:40;34.47;;;13.45;;
21014;SDS011;19207;-23.482;-46.500;2023-05-20T04:03:27;37.08;;;13.25;;
21014;SDS011;19207;-23.482;-46.500;2023-05-20T04:06:14;40.22;;;12.90;;
21014;SDS011;19207;-23.482;-46.500;2023-05-20T04:09:01;33.45;;;12.93;;
21014;SDS011;19207;-23.482;-46.500;2023-05-20T04:11:48;34.45;;;13.50;;
21014;SDS011;19207;-23.482;-46.500;2023-05-20T04:14:34;48.42;;;17.85;;
21014;SDS011;19207;-23.482;-46.500;2023-05-20T04:17:22;53.03;;;19.55;;
21014;SDS011;19207;-23.482;-46.500;2023-05-20T04:20:10;79.37;;;26.42;;
21014;SDS011;19207;-23.482;-46.500;2023-05-20T04:22:57;99.18;;;30.08;;
21014;SDS011;19207;-23.482;-46.500;2023-05-20T04:25:44;114.40;;;32.08;;
21014;SDS011;19207;-23.482;-46.500;2023-05-20T04:28:30;104.00;;;31.98;;
21014;SDS011;19207;-23.482;-46.500;2023-05-20T04:31:17;113.40;;;31.90;;
21014;SDS011;19207;-23.482;-46.500;2023-05-20T04:34:05;105.07;;;32.83;;
21014;SDS011;19207;-23.482;-46.500;2023-05-20T04:36:52;78.68;;;28.45;;
21014;SDS011;19207;-23.482;-46.500;2023-05-20T04:39:39;70.03;;;27.37;;
21014;SDS011;19207;-23.482;-46.500;2023-05-20T04:42:29;83.82;;;27.17;;
21014;SDS011;19207;-23.482;-46.500;2023-05-20T04:45:15;77.57;;;25.75;;
21014;SDS011;19207;-23.482;-46.500;2023-05-20T04:48:02;75.40;;;26.10;;
21014;SDS011;19207;-23.482;-46.500;2023-05-20T04:50:50;85.00;;;28.58;;
21014;SDS011;19207;-23.482;-46.500;2023-05-20T04:53:38;89.97;;;29.12;;
21014;SDS011;19207;-23.482;-46.500;2023-05-20T04:56:25;92.28;;;31.33;;
21014;SDS011;19207;-23.482;-46.500;2023-05-20T04:59:12;103.50;;;34.45;;
21014;SDS011;19207;-23.482;-46.500;2023-05-20T05:01:59;121.28;;;37.45;;
21014;SDS011;19207;-23.482;-46.500;2023-05-20T05:04:46;142.40;;;45.05;;
21014;SDS011;19207;-23.482;-46.500;2023-05-20T05:07:33;148.00;;;48.58;;
21014;SDS011;19207;-23.482;-46.500;2023-05-20T05:10:20;139.70;;;50.97;;
21014;SDS011;19207;-23.482;-46.500;2023-05-20T05:13:08;154.63;;;50.92;;
21014;SDS011;19207;-23.482;-46.500;2023-05-20T05:16:01;167.20;;;50.67;;
21014;SDS011;19207;-23.482;-46.500;2023-05-20T05:18:48;169.30;;;50.00;;
21014;SDS011;19207;-23.482;-46.500;2023-05-20T05:21:35;170.73;;;51.63;;
21014;SDS011;19207;-23.482;-46.500;2023-05-20T05:24:21;183.82;;;51.90;;
21014;SDS011;19207;-23.482;-46.500;2023-05-20T05:27:08;165.50;;;47.15;;
21014;SDS011;19207;-23.482;-46.500;2023-05-20T05:29:55;164.90;;;43.58;;
21014;SDS011;19207;-23.482;-46.500;2023-05-20T05:32:42;159.20;;;42.40;;
21014;SDS011;19207;-23.482;-46.500;2023-05-20T05:35:28;145.95;;;40.30;;
21014;SDS011;19207;-23.482;-46.500;2023-05-20T05:38:15;145.48;;;41.22;;
21014;SDS011;19207;-23.482;-46.500;2023-05-20T05:41:02;149.57;;;43.92;;
21014;SDS011;19207;-23.482;-46.500;2023-05-20T05:43:48;154.30;;;45.97;;
21014;SDS011;19207;-23.482;-46.500;2023-05-20T05:46:35;141.18;;;43.95;;
21014;SDS011;19207;-23.482;-46.500;2023-05-20T05:49:22;140.23;;;40.30;;
21014;SDS011;19207;-23.482;-46.500;2023-05-20T05:52:08;131.30;;;39.60;;
21014;SDS011;19207;-23.482;-46.500;2023-05-20T05:54:56;139.88;;;40.08;;
21014;SDS011;19207;-23.482;-46.500;2023-05-20T05:57:43;142.20;;;40.28;;
21014;SDS011;19207;-23.482;-46.500;2023-05-20T06:00:30;134.20;;;36.65;;
21014;SDS011;19207;-23.482;-46.500;2023-05-20T06:03:17;136.27;;;37.90;;
21014;SDS011;19207;-23.482;-46.500;2023-05-20T06:06:06;136.57;;;37.67;;
21014;SDS011;19207;-23.482;-46.500;2023-05-20T06:08:53;114.75;;;36.05;;
21014;SDS011;19207;-23.482;-46.500;2023-05-20T06:11:40;141.37;;;40.00;;
21014;SDS011;19207;-23.482;-46.500;2023-05-20T06:14:28;144.32;;;41.75;;
21014;SDS011;19207;-23.482;-46.500;2023-05-20T06:17:17;141.35;;;42.65;;
21014;SDS011;19207;-23.482;-46.500;2023-05-20T06:20:04;151.77;;;43.00;;
21014;SDS011;19207;-23.482;-46.500;2023-05-20T06:22:50;144.37;;;43.00;;
21014;SDS011;19207;-23.482;-46.500;2023-05-20T06:25:37;150.87;;;42.05;;
21014;SDS011;19207;-23.482;-46.500;2023-05-20T06:28:25;134.82;;;40.80;;
21014;SDS011;19207;-23.482;-46.500;2023-05-20T06:31:11;133.75;;;39.35;;
21014;SDS011;19207;-23.482;-46.500;2023-05-20T06:33:59;104.85;;;37.67;;
21014;SDS011;19207;-23.482;-46.500;2023-05-20T06:36:46;123.85;;;39.70;;
21014;SDS011;19207;-23.482;-46.500;2023-05-20T06:39:32;111.03;;;38.80;;
21014;SDS011;19207;-23.482;-46.500;2023-05-20T06:42:20;117.32;;;37.72;;
21014;SDS011;19207;-23.482;-46.500;2023-05-20T06:45:07;103.93;;;34.17;;
21014;SDS011;19207;-23.482;-46.500;2023-05-20T06:47:54;77.40;;;27.73;;
21014;SDS011;19207;-23.482;-46.500;2023-05-20T06:50:41;81.12;;;29.70;;
21014;SDS011;19207;-23.482;-46.500;2023-05-20T06:53:28;94.13;;;29.55;;
21014;SDS011;19207;-23.482;-46.500;2023-05-20T06:56:15;90.18;;;27.75;;
21014;SDS011;19207;-23.482;-46.500;2023-05-20T06:59:02;71.95;;;25.08;;
21014;SDS011;19207;-23.482;-46.500;2023-05-20T07:01:49;76.43;;;24.42;;
21014;SDS011;19207;-23.482;-46.500;2023-05-20T07:04:36;77.00;;;25.52;;
21014;SDS011;19207;-23.482;-46.500;2023-05-20T07:07:23;78.28;;;25.23;;
21014;SDS011;19207;-23.482;-46.500;2023-05-20T07:10:10;77.37;;;25.40;;
21014;SDS011;19207;-23.482;-46.500;2023-05-20T07:12:56;88.97;;;25.90;;
21014;SDS011;19207;-23.482;-46.500;2023-05-20T07:15:47;85.15;;;26.77;;
21014;SDS011;19207;-23.482;-46.500;2023-05-20T07:18:34;82.80;;;26.77;;
21014;SDS011;19207;-23.482;-46.500;2023-05-20T07:21:20;70.03;;;25.65;;
21014;SDS011;19207;-23.482;-46.500;2023-05-20T07:24:07;68.60;;;24.83;;
21014;SDS011;19207;-23.482;-46.500;2023-05-20T07:26:53;71.53;;;25.67;;
21014;SDS011;19207;-23.482;-46.500;2023-05-20T07:29:41;77.87;;;27.83;;
21014;SDS011;19207;-23.482;-46.500;2023-05-20T07:32:28;75.15;;;26.40;;
21014;SDS011;19207;-23.482;-46.500;2023-05-20T07:35:15;76.00;;;26.73;;
21014;SDS011;19207;-23.482;-46.500;2023-05-20T07:38:02;76.32;;;26.58;;
21014;SDS011;19207;-23.482;-46.500;2023-05-20T07:40:49;76.00;;;26.77;;
21014;SDS011;19207;-23.482;-46.500;2023-05-20T07:43:35;75.95;;;26.67;;
21014;SDS011;19207;-23.482;-46.500;2023-05-20T07:46:22;73.18;;;26.40;;
21014;SDS011;19207;-23.482;-46.500;2023-05-20T07:49:08;79.50;;;26.77;;
21014;SDS011;19207;-23.482;-46.500;2023-05-20T07:51:56;81.20;;;26.33;;
21014;SDS011;19207;-23.482;-46.500;2023-05-20T07:54:43;67.97;;;24.45;;
21014;SDS011;19207;-23.482;-46.500;2023-05-20T07:57:31;63.97;;;24.60;;
21014;SDS011;19207;-23.482;-46.500;2023-05-20T08:00:18;65.60;;;24.85;;
21014;SDS011;19207;-23.482;-46.500;2023-05-20T08:03:04;74.43;;;25.88;;
21014;SDS011;19207;-23.482;-46.500;2023-05-20T08:05:55;72.07;;;26.73;;
21014;SDS011;19207;-23.482;-46.500;2023-05-20T08:08:42;70.95;;;27.37;;
21014;SDS011;19207;-23.482;-46.500;2023-05-20T08:11:29;82.45;;;28.60;;
21014;SDS011;19207;-23.482;-46.500;2023-05-20T08:14:16;76.53;;;27.90;;
21014;SDS011;19207;-23.482;-46.500;2023-05-20T08:17:04;75.82;;;26.45;;
21014;SDS011;19207;-23.482;-46.500;2023-05-20T08:19:50;65.03;;;25.30;;
21014;SDS011;19207;-23.482;-46.500;2023-05-20T08:22:37;74.93;;;25.80;;
21014;SDS011;19207;-23.482;-46.500;2023-05-20T08:25:24;86.70;;;28.15;;
21014;SDS011;19207;-23.482;-46.500;2023-05-20T08:28:13;74.60;;;26.80;;
21014;SDS011;19207;-23.482;-46.500;2023-05-20T08:31:00;84.43;;;28.52;;
21014;SDS011;19207;-23.482;-46.500;2023-05-20T08:33:47;77.53;;;26.67;;
21014;SDS011;19207;-23.482;-46.500;2023-05-20T08:36:34;83.75;;;29.23;;
21014;SDS011;19207;-23.482;-46.500;2023-05-20T08:39:21;69.60;;;27.73;;
21014;SDS011;19207;-23.482;-46.500;2023-05-20T08:42:08;87.97;;;30.17;;
21014;SDS011;19207;-23.482;-46.500;2023-05-20T08:44:57;72.18;;;29.27;;
21014;SDS011;19207;-23.482;-46.500;2023-05-20T08:47:49;70.55;;;29.52;;
21014;SDS011;19207;-23.482;-46.500;2023-05-20T08:50:36;82.37;;;29.50;;
21014;SDS011;19207;-23.482;-46.500;2023-05-20T08:53:23;71.75;;;27.98;;
21014;SDS011;19207;-23.482;-46.500;2023-05-20T08:56:09;77.65;;;28.42;;
21014;SDS011;19207;-23.482;-46.500;2023-05-20T08:58:57;78.07;;;29.58;;
21014;SDS011;19207;-23.482;-46.500;2023-05-20T09:01:44;80.25;;;30.70;;
21014;SDS011;19207;-23.482;-46.500;2023-05-20T09:04:30;83.70;;;28.65;;
21014;SDS011;19207;-23.482;-46.500;2023-05-20T09:07:27;82.45;;;30.75;;
21014;SDS011;19207;-23.482;-46.500;2023-05-20T09:10:13;81.68;;;29.63;;
21014;SDS011;19207;-23.482;-46.500;2023-05-20T09:13:01;72.10;;;28.25;;
21014;SDS011;19207;-23.482;-46.500;2023-05-20T09:15:48;78.07;;;27.00;;
21014;SDS011;19207;-23.482;-46.500;2023-05-20T09:18:37;79.78;;;26.98;;
21014;SDS011;19207;-23.482;-46.500;2023-05-20T09:21:27;81.95;;;27.73;;
21014;SDS011;19207;-23.482;-46.500;2023-05-20T09:24:14;76.85;;;25.98;;
21014;SDS011;19207;-23.482;-46.500;2023-05-20T09:27:01;79.53;;;26.52;;
21014;SDS011;19207;-23.482;-46.500;2023-05-20T09:29:47;72.97;;;26.58;;
21014;SDS011;19207;-23.482;-46.500;2023-05-20T09:32:35;72.60;;;26.37;;
21014;SDS011;19207;-23.482;-46.500;2023-05-20T09:35:23;70.97;;;25.70;;
21014;SDS011;19207;-23.482;-46.500;2023-05-20T09:38:10;80.47;;;26.92;;
21014;SDS011;19207;-23.482;-46.500;2023-05-20T09:40:57;87.25;;;27.67;;
21014;SDS011;19207;-23.482;-46.500;2023-05-20T09:43:45;75.25;;;27.85;;
21014;SDS011;19207;-23.482;-46.500;2023-05-20T09:46:33;72.85;;;26.80;;
21014;SDS011;19207;-23.482;-46.500;2023-05-20T09:49:19;80.03;;;27.73;;
21014;SDS011;19207;-23.482;-46.500;2023-05-20T09:52:07;78.37;;;27.87;;
21014;SDS011;19207;-23.482;-46.500;2023-05-20T09:54:54;79.40;;;25.73;;
21014;SDS011;19207;-23.482;-46.500;2023-05-20T09:57:41;74.78;;;26.33;;
21014;SDS011;19207;-23.482;-46.500;2023-05-20T10:00:29;69.10;;;23.98;;
21014;SDS011;19207;-23.482;-46.500;2023-05-20T10:03:17;61.53;;;24.12;;
21014;SDS011;19207;-23.482;-46.500;2023-05-20T10:09:13;52.15;;;22.02;;
21014;SDS011;19207;-23.482;-46.500;2023-05-20T10:17:58;60.25;;;24.15;;
21014;SDS011;19207;-23.482;-46.500;2023-05-20T10:20:48;57.62;;;22.87;;
21014;SDS011;19207;-23.482;-46.500;2023-05-20T10:23:35;55.28;;;21.20;;
21014;SDS011;19207;-23.482;-46.500;2023-05-20T10:26:22;50.75;;;19.37;;
21014;SDS011;19207;-23.482;-46.500;2023-05-20T10:29:16;49.67;;;18.80;;
21014;SDS011;19207;-23.482;-46.500;2023-05-20T10:32:04;54.20;;;20.90;;
21014;SDS011;19207;-23.482;-46.500;2023-05-20T10:34:51;54.13;;;21.00;;
21014;SDS011;19207;-23.482;-46.500;2023-05-20T10:37:40;55.60;;;20.98;;
21014;SDS011;19207;-23.482;-46.500;2023-05-20T10:40:27;56.25;;;22.02;;
21014;SDS011;19207;-23.482;-46.500;2023-05-20T10:43:15;49.60;;;18.67;;
21014;SDS011;19207;-23.482;-46.500;2023-05-20T10:46:02;57.95;;;18.62;;
21014;SDS011;19207;-23.482;-46.500;2023-05-20T10:48:49;45.15;;;19.58;;
21014;SDS011;19207;-23.482;-46.500;2023-05-20T10:51:36;46.15;;;20.80;;
21014;SDS011;19207;-23.482;-46.500;2023-05-20T10:54:23;58.45;;;23.15;;
21014;SDS011;19207;-23.482;-46.500;2023-05-20T10:57:10;55.63;;;21.73;;
21014;SDS011;19207;-23.482;-46.500;2023-05-20T10:59:57;57.78;;;23.38;;
21014;SDS011;19207;-23.482;-46.500;2023-05-20T11:02:46;59.03;;;22.00;;
21014;SDS011;19207;-23.482;-46.500;2023-05-20T11:05:33;61.78;;;23.77;;
21014;SDS011;19207;-23.482;-46.500;2023-05-20T11:08:20;62.47;;;23.77;;
21014;SDS011;19207;-23.482;-46.500;2023-05-20T11:11:07;55.45;;;23.48;;
21014;SDS011;19207;-23.482;-46.500;2023-05-20T11:13:55;49.10;;;22.62;;
21014;SDS011;19207;-23.482;-46.500;2023-05-20T11:16:44;44.53;;;20.85;;
21014;SDS011;19207;-23.482;-46.500;2023-05-20T11:19:32;40.12;;;18.05;;
21014;SDS011;19207;-23.482;-46.500;2023-05-20T11:22:22;46.05;;;19.60;;
21014;SDS011;19207;-23.482;-46.500;2023-05-20T11:25:11;51.30;;;22.77;;
21014;SDS011;19207;-23.482;-46.500;2023-05-20T11:27:58;50.35;;;20.50;;
21014;SDS011;19207;-23.482;-46.500;2023-05-20T11:30:45;50.53;;;21.08;;
21014;SDS011;19207;-23.482;-46.500;2023-05-20T11:33:32;45.22;;;18.62;;
21014;SDS011;19207;-23.482;-46.500;2023-05-20T11:36:19;46.65;;;19.50;;
21014;SDS011;19207;-23.482;-46.500;2023-05-20T11:39:06;43.33;;;20.02;;
21014;SDS011;19207;-23.482;-46.500;2023-05-20T11:41:56;43.97;;;20.33;;
21014;SDS011;19207;-23.482;-46.500;2023-05-20T11:44:43;42.25;;;19.45;;
21014;SDS011;19207;-23.482;-46.500;2023-05-20T11:47:30;38.00;;;18.20;;
21014;SDS011;19207;-23.482;-46.500;2023-05-20T11:50:20;37.47;;;17.67;;
21014;SDS011;19207;-23.482;-46.500;2023-05-20T11:53:08;37.85;;;19.45;;
21014;SDS011;19207;-23.482;-46.500;2023-05-20T11:55:55;44.78;;;19.05;;
21014;SDS011;19207;-23.482;-46.500;2023-05-20T11:58:42;44.42;;;18.12;;
21014;SDS011;19207;-23.482;-46.500;2023-05-20T12:01:30;42.35;;;18.10;;
21014;SDS011;19207;-23.482;-46.500;2023-05-20T12:04:31;50.17;;;17.98;;
21014;SDS011;19207;-23.482;-46.500;2023-05-20T12:07:18;35.47;;;17.08;;
21014;SDS011;19207;-23.482;-46.500;2023-05-20T12:10:05;43.95;;;17.55;;
21014;SDS011;19207;-23.482;-46.500;2023-05-20T12:13:13;40.15;;;18.35;;
21014;SDS011;19207;-23.482;-46.500;2023-05-20T12:16:00;34.42;;;18.65;;
21014;SDS011;19207;-23.482;-46.500;2023-05-20T12:18:46;46.85;;;17.20;;
21014;SDS011;19207;-23.482;-46.500;2023-05-20T12:21:33;31.35;;;15.80;;
21014;SDS011;19207;-23.482;-46.500;2023-05-20T12:24:20;35.63;;;15.55;;
21014;SDS011;19207;-23.482;-46.500;2023-05-20T12:27:07;34.78;;;16.00;;
21014;SDS011;19207;-23.482;-46.500;2023-05-20T12:29:54;36.53;;;16.45;;
21014;SDS011;19207;-23.482;-46.500;2023-05-20T12:32:41;35.90;;;15.82;;
21014;SDS011;19207;-23.482;-46.500;2023-05-20T12:35:38;41.03;;;16.08;;
21014;SDS011;19207;-23.482;-46.500;2023-05-20T12:38:25;37.08;;;15.88;;
21014;SDS011;19207;-23.482;-46.500;2023-05-20T12:41:12;39.22;;;16.23;;
21014;SDS011;19207;-23.482;-46.500;2023-05-20T12:43:59;30.65;;;15.38;;
21014;SDS011;19207;-23.482;-46.500;2023-05-20T12:46:46;32.10;;;14.20;;
21014;SDS011;19207;-23.482;-46.500;2023-05-20T12:49:32;34.22;;;15.13;;
21014;SDS011;19207;-23.482;-46.500;2023-05-20T12:52:19;34.67;;;15.02;;
21014;SDS011;19207;-23.482;-46.500;2023-05-20T12:55:06;32.78;;;13.75;;
21014;SDS011;19207;-23.482;-46.500;2023-05-20T12:57:57;26.40;;;12.35;;
21014;SDS011;19207;-23.482;-46.500;2023-05-20T13:00:44;30.23;;;13.90;;
21014;SDS011;19207;-23.482;-46.500;2023-05-20T13:03:30;23.77;;;11.38;;
21014;SDS011;19207;-23.482;-46.500;2023-05-20T13:06:18;32.83;;;13.75;;
21014;SDS011;19207;-23.482;-46.500;2023-05-20T13:09:04;28.48;;;12.48;;
21014;SDS011;19207;-23.482;-46.500;2023-05-20T13:11:51;38.25;;;13.70;;
21014;SDS011;19207;-23.482;-46.500;2023-05-20T13:14:38;33.55;;;12.82;;
21014;SDS011;19207;-23.482;-46.500;2023-05-20T13:17:26;25.67;;;13.82;;
21014;SDS011;19207;-23.482;-46.500;2023-05-20T13:20:13;29.25;;;13.50;;
21014;SDS011;19207;-23.482;-46.500;2023-05-20T13:23:01;27.27;;;13.32;;
21014;SDS011;19207;-23.482;-46.500;2023-05-20T13:25:48;27.10;;;12.20;;
21014;SDS011;19207;-23.482;-46.500;2023-05-20T13:28:35;23.17;;;11.88;;
21014;SDS011;19207;-23.482;-46.500;2023-05-20T13:31:21;20.25;;;10.77;;
21014;SDS011;19207;-23.482;-46.500;2023-05-20T13:34:09;21.83;;;10.77;;
21014;SDS011;19207;-23.482;-46.500;2023-05-20T13:36:56;26.25;;;12.57;;
21014;SDS011;19207;-23.482;-46.500;2023-05-20T13:39:42;27.92;;;12.27;;
21014;SDS011;19207;-23.482;-46.500;2023-05-20T13:42:29;26.52;;;11.77;;
21014;SDS011;19207;-23.482;-46.500;2023-05-20T13:45:16;24.50;;;11.73;;
21014;SDS011;19207;-23.482;-46.500;2023-05-20T13:48:03;35.85;;;12.23;;
21014;SDS011;19207;-23.482;-46.500;2023-05-20T13:50:50;25.40;;;11.45;;
21014;SDS011;19207;-23.482;-46.500;2023-05-20T13:53:37;30.00;;;11.60;;
21014;SDS011;19207;-23.482;-46.500;2023-05-20T13:56:23;23.17;;;12.55;;
21014;SDS011;19207;-23.482;-46.500;2023-05-20T13:59:10;25.83;;;13.65;;
21014;SDS011;19207;-23.482;-46.500;2023-05-20T14:01:57;25.37;;;11.43;;
21014;SDS011;19207;-23.482;-46.500;2023-05-20T14:04:45;29.67;;;12.95;;
21014;SDS011;19207;-23.482;-46.500;2023-05-20T14:07:32;21.35;;;10.73;;
21014;SDS011;19207;-23.482;-46.500;2023-05-20T14:10:18;22.65;;;11.27;;
21014;SDS011;19207;-23.482;-46.500;2023-05-20T14:13:05;30.73;;;12.05;;
21014;SDS011;19207;-23.482;-46.500;2023-05-20T14:15:53;30.40;;;12.57;;
21014;SDS011;19207;-23.482;-46.500;2023-05-20T14:18:42;24.90;;;11.07;;
21014;SDS011;19207;-23.482;-46.500;2023-05-20T14:21:29;25.20;;;10.98;;
21014;SDS011;19207;-23.482;-46.500;2023-05-20T14:24:16;26.12;;;11.15;;
21014;SDS011;19207;-23.482;-46.500;2023-05-20T14:27:04;29.98;;;11.55;;
21014;SDS011;19207;-23.482;-46.500;2023-05-20T14:29:51;22.27;;;10.93;;
21014;SDS011;19207;-23.482;-46.500;2023-05-20T14:32:38;21.83;;;11.57;;
21014;SDS011;19207;-23.482;-46.500;2023-05-20T14:35:24;22.20;;;10.38;;
21014;SDS011;19207;-23.482;-46.500;2023-05-20T14:38:11;22.23;;;12.52;;
21014;SDS011;19207;-23.482;-46.500;2023-05-20T14:40:58;26.58;;;10.73;;
21014;SDS011;19207;-23.482;-46.500;2023-05-20T14:43:45;20.73;;;10.80;;
21014;SDS011;19207;-23.482;-46.500;2023-05-20T14:46:32;23.20;;;11.90;;
21014;SDS011;19207;-23.482;-46.500;2023-05-20T14:49:19;29.87;;;12.90;;
21014;SDS011;19207;-23.482;-46.500;2023-05-20T14:52:06;21.15;;;11.40;;
21014;SDS011;19207;-23.482;-46.500;2023-05-20T14:54:53;24.35;;;12.20;;
21014;SDS011;19207;-23.482;-46.500;2023-05-20T14:57:40;25.60;;;13.82;;
21014;SDS011;19207;-23.482;-46.500;2023-05-20T15:00:27;30.25;;;14.07;;
21014;SDS011;19207;-23.482;-46.500;2023-05-20T15:03:16;29.40;;;13.68;;
21014;SDS011;19207;-23.482;-46.500;2023-05-20T15:06:03;24.77;;;12.13;;
21014;SDS011;19207;-23.482;-46.500;2023-05-20T15:08:53;23.40;;;11.55;;
21014;SDS011;19207;-23.482;-46.500;2023-05-20T15:11:40;21.87;;;11.68;;
21014;SDS011;19207;-23.482;-46.500;2023-05-20T15:14:28;28.12;;;11.93;;
21014;SDS011;19207;-23.482;-46.500;2023-05-20T15:17:15;22.08;;;11.52;;
21014;SDS011;19207;-23.482;-46.500;2023-05-20T15:20:02;21.02;;;9.23;;
21014;SDS011;19207;-23.482;-46.500;2023-05-20T15:22:49;24.30;;;9.88;;
21014;SDS011;19207;-23.482;-46.500;2023-05-20T15:25:36;16.55;;;8.88;;
21014;SDS011;19207;-23.482;-46.500;2023-05-20T15:28:23;16.27;;;8.63;;
21014;SDS011;19207;-23.482;-46.500;2023-05-20T15:31:09;20.90;;;9.20;;
21014;SDS011;19207;-23.482;-46.500;2023-05-20T15:33:56;26.58;;;11.00;;
21014;SDS011;19207;-23.482;-46.500;2023-05-20T15:36:43;30.17;;;11.35;;
21014;SDS011;19207;-23.482;-46.500;2023-05-20T15:39:30;29.45;;;12.02;;
21014;SDS011;19207;-23.482;-46.500;2023-05-20T15:42:17;19.92;;;11.20;;
21014;SDS011;19207;-23.482;-46.500;2023-05-20T15:45:05;30.12;;;11.20;;